sensor_id;sensor_type;location;lat;lon;timestamp;pressure;altitude;pressure_sealevel;temperature;humidity
8334;BME280;4204;43.004;23.052;2023-06-04T00:02:26;93957.56;;;18.83;100.00
8334;BME280;4204;43.004;23.052;2023-06-04T00:04:54;93957.41;;;18.73;100.00
8334;BME280;4204;43.004;23.052;2023-06-04T00:07:21;93955.38;;;18.66;100.00
8334;BME280;4204;43.004;23.052;2023-06-04T00:09:49;93955.03;;;18.68;100.00
8334;BME280;4204;43.004;23.052;2023-06-04T00:12:17;93954.38;;;18.51;100.00
8334;BME280;4204;43.004;23.052;2023-06-04T00:14:45;93955.16;;;18.33;100.00
8334;BME280;4204;43.004;23.052;2023-06-04T00:17:14;93942.94;;;18.16;100.00
8334;BME280;4204;43.004;23.052;2023-06-04T00:19:42;93946.91;;;18.03;100.00
8334;BME280;4204;43.004;23.052;2023-06-04T00:22:09;93948.16;;;18.09;100.00
8334;BME280;4204;43.004;23.052;2023-06-04T00:24:38;93955.47;;;18.09;100.00
8334;BME280;4204;43.004;23.052;2023-06-04T00:27:07;93945.94;;;18.15;100.00
8334;BME280;4204;43.004;23.052;2023-06-04T00:29:35;93939.41;;;18.12;100.00
8334;BME280;4204;43.004;23.052;2023-06-04T00:32:03;93935.72;;;18.01;100.00
8334;BME280;4204;43.004;23.052;2023-06-04T00:34:32;93939.94;;;18.02;100.00
8334;BME280;4204;43.004;23.052;2023-06-04T00:37:00;93945.31;;;18.02;100.00
8334;BME280;4204;43.004;23.052;2023-06-04T00:39:28;93940.72;;;18.03;100.00
8334;BME280;4204;43.004;23.052;2023-06-04T00:41:56;93941.34;;;18.15;100.00
8334;BME280;4204;43.004;23.052;2023-06-04T00:44:24;93940.78;;;18.25;100.00
8334;BME280;4204;43.004;23.052;2023-06-04T00:46:52;93929.66;;;18.27;100.00
8334;BME280;4204;43.004;23.052;2023-06-04T00:49:20;93925.13;;;18.31;100.00
8334;BME280;4204;43.004;23.052;2023-06-04T00:51:51;93931.41;;;18.38;100.00
8334;BME280;4204;43.004;23.052;2023-06-04T00:54:19;93931.44;;;18.42;100.00
8334;BME280;4204;43.004;23.052;2023-06-04T00:56:47;93927.72;;;18.46;100.00
8334;BME280;4204;43.004;23.052;2023-06-04T00:59:15;93931.66;;;18.52;100.00
8334;BME280;4204;43.004;23.052;2023-06-04T01:01:47;93929.16;;;18.63;100.00
8334;BME280;4204;43.004;23.052;2023-06-04T01:04:22;93928.88;;;18.68;100.00
8334;BME280;4204;43.004;23.052;2023-06-04T01:06:56;93934.97;;;18.65;100.00
8334;BME280;4204;43.004;23.052;2023-06-04T01:09:26;93927.91;;;18.57;100.00
8334;BME280;4204;43.004;23.052;2023-06-04T01:11:54;93924.78;;;18.55;100.00
8334;BME280;4204;43.004;23.052;2023-06-04T01:14:24;93933.53;;;18.48;100.00
8334;BME280;4204;43.004;23.052;2023-06-04T01:16:56;93927.72;;;18.46;100.00
8334;BME280;4204;43.004;23.052;2023-06-04T01:22:37;93926.25;;;18.30;100.00
8334;BME280;4204;43.004;23.052;2023-06-04T01:25:12;93936.16;;;18.26;100.00
8334;BME280;4204;43.004;23.052;2023-06-04T01:27:48;93931.84;;;18.21;100.00
8334;BME280;4204;43.004;23.052;2023-06-04T01:30:19;93935.06;;;18.08;100.00
8334;BME280;4204;43.004;23.052;2023-06-04T01:32:47;93942.00;;;18.09;100.00
8334;BME280;4204;43.004;23.052;2023-06-04T01:35:15;93935.69;;;18.20;100.00
8334;BME280;4204;43.004;23.052;2023-06-04T01:37:44;93936.72;;;18.35;100.00
8334;BME280;4204;43.004;23.052;2023-06-04T01:40:13;93941.69;;;18.33;100.00
8334;BME280;4204;43.004;23.052;2023-06-04T01:42:41;93939.75;;;18.33;100.00
8334;BME280;4204;43.004;23.052;2023-06-04T01:45:09;93941.31;;;18.34;100.00
8334;BME280;4204;43.004;23.052;2023-06-04T01:47:37;93946.09;;;18.22;100.00
8334;BME280;4204;43.004;23.052;2023-06-04T01:50:06;93939.22;;;18.24;100.00
8334;BME280;4204;43.004;23.052;2023-06-04T01:52:35;93943.41;;;18.22;100.00
8334;BME280;4204;43.004;23.052;2023-06-04T01:55:05;93942.81;;;18.32;100.00
8334;BME280;4204;43.004;23.052;2023-06-04T01:57:34;93928.75;;;18.19;100.00
8334;BME280;4204;43.004;23.052;2023-06-04T02:00:03;93946.56;;;18.27;100.00
8334;BME280;4204;43.004;23.052;2023-06-04T02:02:40;93954.13;;;18.18;100.00
8334;BME280;4204;43.004;23.052;2023-06-04T02:05:09;93959.50;;;18.18;100.00
8334;BME280;4204;43.004;23.052;2023-06-04T02:07:39;93960.25;;;18.19;100.00
8334;BME280;4204;43.004;23.052;2023-06-04T02:10:09;93958.56;;;18.11;100.00
8334;BME280;4204;43.004;23.052;2023-06-04T02:12:39;93966.22;;;18.09;100.00
8334;BME280;4204;43.004;23.052;2023-06-04T02:15:10;93975.56;;;18.15;100.00
8334;BME280;4204;43.004;23.052;2023-06-04T02:17:37;93969.44;;;18.14;100.00
8334;BME280;4204;43.004;23.052;2023-06-04T02:20:07;93966.78;;;18.18;100.00
8334;BME280;4204;43.004;23.052;2023-06-04T02:22:36;93973.38;;;18.20;100.00
8334;BME280;4204;43.004;23.052;2023-06-04T02:25:04;93972.53;;;18.16;100.00
8334;BME280;4204;43.004;23.052;2023-06-04T02:27:36;93970.19;;;18.15;100.00
8334;BME280;4204;43.004;23.052;2023-06-04T02:30:05;93982.38;;;18.09;100.00
8334;BME280;4204;43.004;23.052;2023-06-04T02:32:33;93976.34;;;17.96;100.00
8334;BME280;4204;43.004;23.052;2023-06-04T02:35:02;93978.56;;;17.91;100.00
8334;BME280;4204;43.004;23.052;2023-06-04T02:37:30;93978.84;;;17.86;100.00
8334;BME280;4204;43.004;23.052;2023-06-04T02:39:58;93972.13;;;17.76;100.00
8334;BME280;4204;43.004;23.052;2023-06-04T02:42:26;93978.41;;;17.64;100.00
8334;BME280;4204;43.004;23.052;2023-06-04T02:44:55;93981.22;;;17.71;100.00
8334;BME280;4204;43.004;23.052;2023-06-04T02:47:23;93979.25;;;17.68;100.00
8334;BME280;4204;43.004;23.052;2023-06-04T02:49:51;93979.88;;;17.62;100.00
8334;BME280;4204;43.004;23.052;2023-06-04T02:52:18;93987.47;;;17.56;100.00
8334;BME280;4204;43.004;23.052;2023-06-04T02:54:49;93988.59;;;17.55;100.00
8334;BME280;4204;43.004;23.052;2023-06-04T02:57:16;93988.25;;;17.76;100.00
8334;BME280;4204;43.004;23.052;2023-06-04T02:59:44;93996.72;;;17.94;100.00
8334;BME280;4204;43.004;23.052;2023-06-04T03:02:13;93995.56;;;17.95;100.00
8334;BME280;4204;43.004;23.052;2023-06-04T11:55:00;94167.88;;;21.82;100.00
8334;BME280;4204;43.004;23.052;2023-06-04T12:54:25;94188.53;;;22.04;100.00
8334;BME280;4204;43.004;23.052;2023-06-04T12:56:58;94179.88;;;21.84;100.00
8334;BME280;4204;43.004;23.052;2023-06-04T12:59:27;94208.69;;;22.03;100.00
8334;BME280;4204;43.004;23.052;2023-06-04T13:01:55;94151.66;;;21.45;100.00
8334;BME280;4204;43.004;23.052;2023-06-04T13:04:24;94181.19;;;21.60;100.00
8334;BME280;4204;43.004;23.052;2023-06-04T13:06:52;94177.66;;;21.56;100.00
8334;BME280;4204;43.004;23.052;2023-06-04T13:09:30;94116.00;;;21.36;100.00
8334;BME280;4204;43.004;23.052;2023-06-04T13:11:58;94133.53;;;21.52;100.00
8334;BME280;4204;43.004;23.052;2023-06-04T13:14:27;94191.91;;;21.87;100.00
8334;BME280;4204;43.004;23.052;2023-06-04T13:16:59;94136.22;;;21.49;100.00
8334;BME280;4204;43.004;23.052;2023-06-04T13:19:27;94184.84;;;21.79;100.00
8334;BME280;4204;43.004;23.052;2023-06-04T13:21:55;94191.31;;;21.67;100.00
8334;BME280;4204;43.004;23.052;2023-06-04T13:24:25;94159.53;;;21.60;100.00
8334;BME280;4204;43.004;23.052;2023-06-04T13:26:53;94160.31;;;21.61;100.00
8334;BME280;4204;43.004;23.052;2023-06-04T13:29:22;94176.72;;;21.79;100.00
8334;BME280;4204;43.004;23.052;2023-06-04T13:31:50;94176.56;;;21.64;100.00
8334;BME280;4204;43.004;23.052;2023-06-04T13:34:19;94165.19;;;21.45;100.00
8334;BME280;4204;43.004;23.052;2023-06-04T13:36:47;94189.66;;;21.55;100.00
8334;BME280;4204;43.004;23.052;2023-06-04T13:39:15;94143.97;;;21.50;100.00
8334;BME280;4204;43.004;23.052;2023-06-04T13:41:44;94189.22;;;21.90;100.00
8334;BME280;4204;43.004;23.052;2023-06-04T13:44:12;94163.38;;;21.56;100.00
8334;BME280;4204;43.004;23.052;2023-06-04T13:46:41;94193.59;;;21.61;100.00
8334;BME280;4204;43.004;23.052;2023-06-04T13:49:10;94205.31;;;21.72;100.00
8334;BME280;4204;43.004;23.052;2023-06-04T13:51:38;94150.06;;;21.40;100.00
8334;BME280;4204;43.004;23.052;2023-06-04T13:54:06;94190.47;;;21.59;100.00
8334;BME280;4204;43.004;23.052;2023-06-04T13:56:34;94197.09;;;21.65;100.00
8334;BME280;4204;43.004;23.052;2023-06-04T13:59:04;94145.94;;;21.13;100.00
8334;BME280;4204;43.004;23.052;2023-06-04T14:01:32;94187.16;;;21.36;100.00
8334;BME280;4204;43.004;23.052;2023-06-04T14:04:01;94204.28;;;21.47;100.00
8334;BME280;4204;43.004;23.052;2023-06-04T14:06:32;94198.34;;;21.35;100.00
8334;BME280;4204;43.004;23.052;2023-06-04T14:09:02;94170.63;;;21.08;100.00
8334;BME280;4204;43.004;23.052;2023-06-04T14:11:30;94221.75;;;21.20;100.00
8334;BME280;4204;43.004;23.052;2023-06-04T14:13:59;94182.81;;;20.98;100.00
8334;BME280;4204;43.004;23.052;2023-06-04T14:16:28;94204.06;;;21.26;100.00
8334;BME280;4204;43.004;23.052;2023-06-04T14:18:56;94216.31;;;21.17;100.00
8334;BME280;4204;43.004;23.052;2023-06-04T14:21:24;94206.66;;;21.19;100.00
8334;BME280;4204;43.004;23.052;2023-06-04T14:23:53;94166.47;;;20.88;100.00
8334;BME280;4204;43.004;23.052;2023-06-04T14:26:21;94218.59;;;21.15;100.00
8334;BME280;4204;43.004;23.052;2023-06-04T14:28:49;94217.06;;;21.17;100.00
8334;BME280;4204;43.004;23.052;2023-06-04T14:31:16;94210.81;;;21.10;100.00
8334;BME280;4204;43.004;23.052;2023-06-04T14:33:46;94215.00;;;21.04;100.00
8334;BME280;4204;43.004;23.052;2023-06-04T14:36:14;94212.03;;;20.86;100.00
8334;BME280;4204;43.004;23.052;2023-06-04T14:38:43;94224.44;;;20.90;100.00
8334;BME280;4204;43.004;23.052;2023-06-04T14:41:11;94202.34;;;20.55;100.00
8334;BME280;4204;43.004;23.052;2023-06-04T14:43:39;94184.59;;;20.28;100.00
8334;BME280;4204;43.004;23.052;2023-06-04T14:46:08;94239.38;;;20.51;100.00
8334;BME280;4204;43.004;23.052;2023-06-04T14:48:36;94210.78;;;20.24;100.00
8334;BME280;4204;43.004;23.052;2023-06-04T14:51:05;94185.38;;;20.02;100.00
8334;BME280;4204;43.004;23.052;2023-06-04T14:53:33;94183.63;;;19.91;100.00
8334;BME280;4204;43.004;23.052;2023-06-04T14:56:01;94221.78;;;20.12;100.00
8334;BME280;4204;43.004;23.052;2023-06-04T14:58:30;94197.53;;;19.93;100.00
8334;BME280;4204;43.004;23.052;2023-06-04T15:00:58;94168.66;;;19.71;100.00
8334;BME280;4204;43.004;23.052;2023-06-04T15:03:26;94218.00;;;19.94;100.00
8334;BME280;4204;43.004;23.052;2023-06-04T15:05:54;94229.66;;;19.98;100.00
8334;BME280;4204;43.004;23.052;2023-06-04T15:08:24;94215.56;;;19.85;100.00
8334;BME280;4204;43.004;23.052;2023-06-04T15:10:52;94222.88;;;19.85;100.00
8334;BME280;4204;43.004;23.052;2023-06-04T15:13:20;94227.59;;;19.69;100.00
8334;BME280;4204;43.004;23.052;2023-06-04T15:15:49;94226.03;;;19.68;100.00
8334;BME280;4204;43.004;23.052;2023-06-04T15:18:18;94192.03;;;19.41;100.00
8334;BME280;4204;43.004;23.052;2023-06-04T15:20:45;94167.97;;;19.32;100.00
8334;BME280;4204;43.004;23.052;2023-06-04T15:23:13;94222.50;;;19.64;100.00
8334;BME280;4204;43.004;23.052;2023-06-04T15:25:45;94186.75;;;19.48;100.00
8334;BME280;4204;43.004;23.052;2023-06-04T15:28:13;94166.34;;;19.27;100.00
8334;BME280;4204;43.004;23.052;2023-06-04T15:30:42;94181.97;;;19.38;100.00
8334;BME280;4204;43.004;23.052;2023-06-04T15:33:10;94161.78;;;19.31;100.00
8334;BME280;4204;43.004;23.052;2023-06-04T15:35:38;94166.94;;;19.37;100.00
8334;BME280;4204;43.004;23.052;2023-06-04T15:38:06;94154.06;;;19.30;100.00
8334;BME280;4204;43.004;23.052;2023-06-04T15:40:34;94140.31;;;19.16;100.00
8334;BME280;4204;43.004;23.052;2023-06-04T15:43:03;94156.38;;;19.31;100.00
8334;BME280;4204;43.004;23.052;2023-06-04T15:45:32;94167.47;;;19.26;100.00
8334;BME280;4204;43.004;23.052;2023-06-04T15:48:00;94144.75;;;19.05;100.00
8334;BME280;4204;43.004;23.052;2023-06-04T15:50:29;94200.84;;;19.38;100.00
8334;BME280;4204;43.004;23.052;2023-06-04T15:52:57;94204.53;;;19.29;100.00
8334;BME280;4204;43.004;23.052;2023-06-04T15:55:25;94211.91;;;19.32;100.00
8334;BME280;4204;43.004;23.052;2023-06-04T15:57:56;94216.00;;;19.46;100.00
8334;BME280;4204;43.004;23.052;2023-06-04T16:00:31;94167.72;;;19.18;100.00
8334;BME280;4204;43.004;23.052;2023-06-04T16:02:59;94175.44;;;19.19;100.00
8334;BME280;4204;43.004;23.052;2023-06-04T16:05:31;94212.78;;;19.37;100.00
8334;BME280;4204;43.004;23.052;2023-06-04T16:07:59;94213.91;;;19.35;100.00
8334;BME280;4204;43.004;23.052;2023-06-04T16:10:27;94212.78;;;19.37;100.00
8334;BME280;4204;43.004;23.052;2023-06-04T16:12:55;94162.28;;;18.95;100.00
8334;BME280;4204;43.004;23.052;2023-06-04T16:15:23;94157.97;;;18.91;100.00
8334;BME280;4204;43.004;23.052;2023-06-04T16:17:53;94218.19;;;19.37;100.00
8334;BME280;4204;43.004;23.052;2023-06-04T16:20:22;94209.53;;;19.31;100.00
8334;BME280;4204;43.004;23.052;2023-06-04T16:22:51;94198.44;;;19.32;100.00
8334;BME280;4204;43.004;23.052;2023-06-04T16:25:19;94205.44;;;19.37;100.00
8334;BME280;4204;43.004;23.052;2023-06-04T16:27:49;94174.59;;;19.15;100.00
8334;BME280;4204;43.004;23.052;2023-06-04T16:30:17;94216.00;;;19.46;100.00
8334;BME280;4204;43.004;23.052;2023-06-04T16:32:45;94204.16;;;19.31;100.00
8334;BME280;4204;43.004;23.052;2023-06-04T16:35:16;94169.69;;;19.21;100.00
8334;BME280;4204;43.004;23.052;2023-06-04T16:37:44;94173.44;;;19.16;100.00
8334;BME280;4204;43.004;23.052;2023-06-04T16:40:12;94217.03;;;19.38;100.00
8334;BME280;4204;43.004;23.052;2023-06-04T16:42:40;94166.94;;;19.17;100.00
8334;BME280;4204;43.004;23.052;2023-06-04T16:45:10;94212.19;;;19.47;100.00
8334;BME280;4204;43.004;23.052;2023-06-04T16:47:39;94176.50;;;19.15;100.00
8334;BME280;4204;43.004;23.052;2023-06-04T16:50:10;94172.06;;;19.03;100.00
8334;BME280;4204;43.004;23.052;2023-06-04T16:52:41;94221.41;;;19.26;100.00
8334;BME280;4204;43.004;23.052;2023-06-04T16:55:10;94218.72;;;19.26;100.00
8334;BME280;4204;43.004;23.052;2023-06-04T16:57:38;94222.94;;;19.05;100.00
8334;BME280;4204;43.004;23.052;2023-06-04T17:00:06;94198.88;;;18.77;100.00
8334;BME280;4204;43.004;23.052;2023-06-04T17:02:35;94225.69;;;18.89;100.00
8334;BME280;4204;43.004;23.052;2023-06-04T17:05:04;94163.28;;;18.49;100.00
8334;BME280;4204;43.004;23.052;2023-06-04T17:07:35;94166.44;;;18.54;100.00
8334;BME280;4204;43.004;23.052;2023-06-04T17:10:06;94208.19;;;18.99;100.00
8334;BME280;4204;43.004;23.052;2023-06-04T17:12:35;94230.97;;;19.01;100.00
8334;BME280;4204;43.004;23.052;2023-06-04T17:15:05;94234.50;;;19.05;100.00
8334;BME280;4204;43.004;23.052;2023-06-04T17:17:34;94185.13;;;18.82;100.00
8334;BME280;4204;43.004;23.052;2023-06-04T17:20:05;94221.13;;;18.93;100.00
8334;BME280;4204;43.004;23.052;2023-06-04T17:22:35;94189.88;;;18.70;100.00
8334;BME280;4204;43.004;23.052;2023-06-04T17:25:13;94230.44;;;18.96;100.00
8334;BME280;4204;43.004;23.052;2023-06-04T17:27:41;94226.81;;;18.88;100.00
8334;BME280;4204;43.004;23.052;2023-06-04T17:30:20;94220.59;;;18.84;100.00
8334;BME280;4204;43.004;23.052;2023-06-04T17:32:54;94227.53;;;18.66;100.00
8334;BME280;4204;43.004;23.052;2023-06-04T17:35:26;94225.94;;;18.65;100.00
8334;BME280;4204;43.004;23.052;2023-06-04T17:37:57;94174.28;;;18.25;100.00
8334;BME280;4204;43.004;23.052;2023-06-04T17:40:28;94174.28;;;18.25;100.00
8334;BME280;4204;43.004;23.052;2023-06-04T17:42:58;94209.31;;;18.44;100.00
8334;BME280;4204;43.004;23.052;2023-06-04T17:45:28;94199.38;;;18.29;100.00
8334;BME280;4204;43.004;23.052;2023-06-04T17:47:59;94197.28;;;18.22;100.00
8334;BME280;4204;43.004;23.052;2023-06-04T17:50:29;94188.97;;;18.12;100.00
8334;BME280;4204;43.004;23.052;2023-06-04T17:53:08;94221.13;;;18.39;100.00
8334;BME280;4204;43.004;23.052;2023-06-04T17:55:41;94180.81;;;18.08;100.00
8334;BME280;4204;43.004;23.052;2023-06-04T17:58:13;94195.38;;;18.23;100.00
8334;BME280;4204;43.004;23.052;2023-06-04T18:00:44;94212.47;;;18.30;100.00
8334;BME280;4204;43.004;23.052;2023-06-04T18:03:16;94188.69;;;18.17;100.00
8334;BME280;4204;43.004;23.052;2023-06-04T18:05:45;94217.84;;;18.30;100.00
8334;BME280;4204;43.004;23.052;2023-06-04T18:08:19;94213.78;;;18.21;100.00
8334;BME280;4204;43.004;23.052;2023-06-04T18:11:02;94195.16;;;17.97;100.00
8334;BME280;4204;43.004;23.052;2023-06-04T18:13:31;94213.47;;;17.91;100.00
8334;BME280;4204;43.004;23.052;2023-06-04T18:16:00;94194.47;;;17.84;100.00
8334;BME280;4204;43.004;23.052;2023-06-04T18:18:39;94207.41;;;17.78;100.00
8334;BME280;4204;43.004;23.052;2023-06-04T18:21:10;94166.81;;;17.52;100.00
8334;BME280;4204;43.004;23.052;2023-06-04T18:23:38;94177.28;;;17.57;100.00
8334;BME280;4204;43.004;23.052;2023-06-04T18:26:11;94181.63;;;17.62;100.00
8334;BME280;4204;43.004;23.052;2023-06-04T18:28:40;94227.34;;;17.77;100.00
8334;BME280;4204;43.004;23.052;2023-06-04T18:31:09;94198.31;;;17.52;100.00
8334;BME280;4204;43.004;23.052;2023-06-04T18:33:49;94234.56;;;17.73;100.00
8334;BME280;4204;43.004;23.052;2023-06-04T18:36:17;94177.44;;;17.33;100.00
8334;BME280;4204;43.004;23.052;2023-06-04T18:38:45;94237.34;;;17.61;100.00
8334;BME280;4204;43.004;23.052;2023-06-04T18:41:15;94235.34;;;17.58;100.00
8334;BME280;4204;43.004;23.052;2023-06-04T18:43:45;94203.19;;;17.34;100.00
8334;BME280;4204;43.004;23.052;2023-06-04T18:46:15;94244.97;;;17.59;100.00
8334;BME280;4204;43.004;23.052;2023-06-04T18:48:43;94245.25;;;17.42;100.00
8334;BME280;4204;43.004;23.052;2023-06-04T18:51:13;94212.47;;;17.21;100.00
8334;BME280;4204;43.004;23.052;2023-06-04T18:53:42;94191.50;;;16.99;100.00
8334;BME280;4204;43.004;23.052;2023-06-04T18:56:10;94230.66;;;17.28;100.00
8334;BME280;4204;43.004;23.052;2023-06-04T18:58:41;94252.13;;;17.40;100.00
8334;BME280;4204;43.004;23.052;2023-06-04T19:01:11;94221.63;;;17.05;100.00
8334;BME280;4204;43.004;23.052;2023-06-04T19:03:39;94254.09;;;17.27;100.00
8334;BME280;4204;43.004;23.052;2023-06-04T19:06:07;94254.41;;;17.26;100.00
8334;BME280;4204;43.004;23.052;2023-06-04T19:08:44;94250.78;;;17.18;100.00
8334;BME280;4204;43.004;23.052;2023-06-04T19:11:13;94227.22;;;16.99;100.00
8334;BME280;4204;43.004;23.052;2023-06-04T19:13:43;94246.09;;;17.15;100.00
8334;BME280;4204;43.004;23.052;2023-06-04T19:16:11;94256.00;;;16.99;100.00
8334;BME280;4204;43.004;23.052;2023-06-04T19:18:40;94250.91;;;16.82;100.00
8334;BME280;4204;43.004;23.052;2023-06-04T19:21:11;94215.16;;;16.54;100.00
8334;BME280;4204;43.004;23.052;2023-06-04T19:23:42;94227.34;;;16.63;100.00
8334;BME280;4204;43.004;23.052;2023-06-04T19:26:11;94264.00;;;16.83;100.00
8334;BME280;4204;43.004;23.052;2023-06-04T19:28:40;94250.50;;;16.68;100.00
8334;BME280;4204;43.004;23.052;2023-06-04T19:31:10;94272.06;;;16.83;100.00
8334;BME280;4204;43.004;23.052;2023-06-04T19:33:39;94217.75;;;16.38;100.00
8334;BME280;4204;43.004;23.052;2023-06-04T19:36:12;94246.72;;;16.57;100.00
8334;BME280;4204;43.004;23.052;2023-06-04T19:38:41;94241.47;;;16.60;100.00
8334;BME280;4204;43.004;23.052;2023-06-04T19:41:11;94271.84;;;16.76;100.00
8334;BME280;4204;43.004;23.052;2023-06-04T19:43:39;94271.31;;;16.71;100.00
8334;BME280;4204;43.004;23.052;2023-06-04T19:46:11;94236.66;;;16.54;100.00
8334;BME280;4204;43.004;23.052;2023-06-04T19:48:43;94263.25;;;16.71;100.00
8334;BME280;4204;43.004;23.052;2023-06-04T19:51:13;94259.59;;;16.63;100.00
8334;BME280;4204;43.004;23.052;2023-06-04T19:53:42;94244.28;;;16.52;100.00
8334;BME280;4204;43.004;23.052;2023-06-04T19:56:10;94193.41;;;16.19;100.00
8334;BME280;4204;43.004;23.052;2023-06-04T19:58:39;94193.41;;;16.19;100.00
8334;BME280;4204;43.004;23.052;2023-06-04T20:01:07;94222.28;;;16.22;100.00
8334;BME280;4204;43.004;23.052;2023-06-04T20:03:38;94205.72;;;16.20;100.00
8334;BME280;4204;43.004;23.052;2023-06-04T20:06:07;94232.63;;;16.36;100.00
8334;BME280;4204;43.004;23.052;2023-06-04T20:08:37;94237.44;;;16.42;100.00
8334;BME280;4204;43.004;23.052;2023-06-04T20:11:06;94245.28;;;16.35;100.00
8334;BME280;4204;43.004;23.052;2023-06-04T20:13:34;94195.69;;;15.93;100.00
8334;BME280;4204;43.004;23.052;2023-06-04T20:16:04;94219.47;;;16.18;100.00
8334;BME280;4204;43.004;23.052;2023-06-04T20:18:37;94255.13;;;16.31;100.00
8334;BME280;4204;43.004;23.052;2023-06-04T20:21:06;94200.34;;;15.96;100.00
8334;BME280;4204;43.004;23.052;2023-06-04T20:23:36;94192.66;;;15.94;100.00
8334;BME280;4204;43.004;23.052;2023-06-04T20:26:07;94256.69;;;16.32;100.00
8334;BME280;4204;43.004;23.052;2023-06-04T20:28:40;94259.59;;;16.39;100.00
8334;BME280;4204;43.004;23.052;2023-06-04T20:31:08;94255.66;;;16.37;100.00
8334;BME280;4204;43.004;23.052;2023-06-04T20:33:38;94247.84;;;16.32;100.00
8334;BME280;4204;43.004;23.052;2023-06-04T20:36:06;94249.56;;;16.24;100.00
8334;BME280;4204;43.004;23.052;2023-06-04T20:38:39;94204.63;;;15.97;100.00
8334;BME280;4204;43.004;23.052;2023-06-04T20:41:10;94212.66;;;15.97;100.00
8334;BME280;4204;43.004;23.052;2023-06-04T20:43:45;94264.75;;;16.32;100.00
8334;BME280;4204;43.004;23.052;2023-06-04T20:46:14;94260.28;;;16.24;100.00
8334;BME280;4204;43.004;23.052;2023-06-04T20:48:46;94258.81;;;16.39;100.00
8334;BME280;4204;43.004;23.052;2023-06-04T20:51:15;94197.22;;;15.94;100.00
8334;BME280;4204;43.004;23.052;2023-06-04T20:53:44;94228.19;;;16.15;100.00
8334;BME280;4204;43.004;23.052;2023-06-04T20:56:12;94197.03;;;15.99;100.00
8334;BME280;4204;43.004;23.052;2023-06-04T20:58:41;94256.69;;;16.32;100.00
8334;BME280;4204;43.004;23.052;2023-06-04T21:01:10;94204.63;;;15.97;100.00
8334;BME280;4204;43.004;23.052;2023-06-04T21:03:39;94205.63;;;15.92;100.00
8334;BME280;4204;43.004;23.052;2023-06-04T21:06:08;94244.06;;;16.20;100.00
8334;BME280;4204;43.004;23.052;2023-06-04T21:08:39;94215.66;;;15.95;100.00
8334;BME280;4204;43.004;23.052;2023-06-04T21:11:07;94259.84;;;16.22;100.00
8334;BME280;4204;43.004;23.052;2023-06-04T21:13:36;94214.22;;;16.10;100.00
8334;BME280;4204;43.004;23.052;2023-06-04T21:16:03;94245.63;;;16.22;100.00
8334;BME280;4204;43.004;23.052;2023-06-04T21:18:34;94264.53;;;16.25;100.00
8334;BME280;4204;43.004;23.052;2023-06-04T21:21:08;94221.03;;;15.95;100.00
8334;BME280;4204;43.004;23.052;2023-06-04T21:24:05;94259.50;;;16.24;100.00
8334;BME280;4204;43.004;23.052;2023-06-04T21:26:33;94233.22;;;15.81;100.00
8334;BME280;4204;43.004;23.052;2023-06-04T21:29:00;94255.25;;;15.74;100.00
8334;BME280;4204;43.004;23.052;2023-06-04T21:31:28;94266.75;;;15.75;100.00
8334;BME280;4204;43.004;23.052;2023-06-04T21:33:56;94236.13;;;15.52;100.00
8334;BME280;4204;43.004;23.052;2023-06-04T21:36:25;94271.44;;;15.78;100.00
8334;BME280;4204;43.004;23.052;2023-06-04T21:38:54;94273.31;;;15.65;100.00
8334;BME280;4204;43.004;23.052;2023-06-04T21:41:21;94263.50;;;15.69;100.00
8334;BME280;4204;43.004;23.052;2023-06-04T21:43:50;94223.88;;;15.42;100.00
8334;BME280;4204;43.004;23.052;2023-06-04T21:46:17;94273.13;;;15.82;100.00
8334;BME280;4204;43.004;23.052;2023-06-04T21:48:46;94249.66;;;15.79;100.00
8334;BME280;4204;43.004;23.052;2023-06-04T21:51:14;94270.81;;;15.93;100.00
8334;BME280;4204;43.004;23.052;2023-06-04T21:53:43;94271.00;;;15.88;100.00
8334;BME280;4204;43.004;23.052;2023-06-04T21:56:11;94244.47;;;15.62;100.00
8334;BME280;4204;43.004;23.052;2023-06-04T21:58:41;94277.50;;;15.87;100.00
8334;BME280;4204;43.004;23.052;2023-06-04T22:01:09;94243.84;;;15.77;100.00
8334;BME280;4204;43.004;23.052;2023-06-04T22:03:37;94236.41;;;15.50;100.00
8334;BME280;4204;43.004;23.052;2023-06-04T22:06:06;94265.28;;;15.65;100.00
8334;BME280;4204;43.004;23.052;2023-06-04T22:08:36;94238.34;;;15.62;100.00
8334;BME280;4204;43.004;23.052;2023-06-04T22:11:05;94203.75;;;15.36;100.00
8334;BME280;4204;43.004;23.052;2023-06-04T22:13:33;94270.09;;;15.72;100.00
8334;BME280;4204;43.004;23.052;2023-06-04T22:16:01;94199.19;;;15.36;100.00
8334;BME280;4204;43.004;23.052;2023-06-04T22:18:30;94198.88;;;15.50;100.00
8334;BME280;4204;43.004;23.052;2023-06-04T22:20:58;94273.44;;;15.81;100.00
8334;BME280;4204;43.004;23.052;2023-06-04T22:23:29;94202.84;;;15.32;100.00
8334;BME280;4204;43.004;23.052;2023-06-04T22:25:59;94271.00;;;15.76;100.00
8334;BME280;4204;43.004;23.052;2023-06-04T22:28:29;94275.59;;;15.87;100.00
8334;BME280;4204;43.004;23.052;2023-06-04T22:30:58;94276.47;;;15.91;100.00
8334;BME280;4204;43.004;23.052;2023-06-04T22:33:28;94248.75;;;15.75;100.00
8334;BME280;4204;43.004;23.052;2023-06-04T22:35:58;94232.44;;;15.68;100.00
8334;BME280;4204;43.004;23.052;2023-06-04T22:38:26;94224.59;;;15.63;100.00
8334;BME280;4204;43.004;23.052;2023-06-04T22:40:55;94272.34;;;15.82;100.00
8334;BME280;4204;43.004;23.052;2023-06-04T22:43:29;94266.63;;;15.83;100.00
8334;BME280;4204;43.004;23.052;2023-06-04T22:45:57;94217.09;;;15.45;100.00
8334;BME280;4204;43.004;23.052;2023-06-04T22:48:25;94225.03;;;15.53;100.00
8334;BME280;4204;43.004;23.052;2023-06-04T22:50:53;94239.59;;;15.76;100.00
8334;BME280;4204;43.004;23.052;2023-06-04T22:53:23;94263.84;;;15.92;100.00
8334;BME280;4204;43.004;23.052;2023-06-04T22:55:52;94225.72;;;15.62;100.00
8334;BME280;4204;43.004;23.052;2023-06-04T22:58:20;94204.03;;;15.43;100.00
8334;BME280;4204;43.004;23.052;2023-06-04T23:00:49;94223.03;;;15.62;100.00
8334;BME280;4204;43.004;23.052;2023-06-04T23:03:18;94268.31;;;15.88;100.00